Hartford, Connecticut
Traffic Map
Current Weather Conditions
Hartford, Connecticut
Overcast Moderate Fog
Overcast
34°
Feels Like: 29°
Wind Chill: 29° Ceiling: 200
Heat Index: 34° Visibility: 0.25mi
Dew Point: 34° Wind: 6mph
Humidity: 100% Direction: 10° (N)
Pressure: 29.88in Gusts: 0mph
Raw Report DataKHFD 231153Z 01005KT 1/4SM FG VV002 01/01 A2988 RMK AO2 SLP118 T00110011 10022 20011 58034
Traffic Incident Summary
Active as of:
Severity:
Category:
InformationThere was an issue retrieving the traffic information for this location. Please try a different location or try again shortly.
Advertisements